createdAt,value
2019-01-23T00:02:38.191Z,76.42
2019-01-23T00:06:08.292Z,76.5
2019-01-23T00:09:38.381Z,76.56
2019-01-23T00:13:08.442Z,76.62
2019-01-23T00:16:38.552Z,76.68
2019-01-23T00:20:08.802Z,76.73
2019-01-23T00:23:38.873Z,76.77
2019-01-23T00:27:08.864Z,76.85
2019-01-23T00:30:38.894Z,76.91
2019-01-23T00:34:09.054Z,76.95
2019-01-23T00:37:39.105Z,76.98
2019-01-23T00:41:09.200Z,77.05
2019-01-23T00:44:39.265Z,77.08
2019-01-23T00:48:09.306Z,77.13
2019-01-23T00:51:39.486Z,77.17
2019-01-23T00:55:11.867Z,77.22
2019-01-23T00:58:41.837Z,77.25
2019-01-23T01:02:12.080Z,77.28
2019-01-23T01:05:42.158Z,77.32
2019-01-23T01:09:12.233Z,77.36
2019-01-23T01:12:42.350Z,77.41
2019-01-23T01:16:12.489Z,77.44
2019-01-23T01:19:42.530Z,77.43
2019-01-23T01:23:12.699Z,77.49
2019-01-23T01:26:42.731Z,77.53
2019-01-23T01:30:15.556Z,77.57
2019-01-23T01:33:45.684Z,77.59
2019-01-23T01:37:15.722Z,77.63
2019-01-23T01:40:45.892Z,77.64
2019-01-23T01:44:16.005Z,77.67
2019-01-23T01:47:46.023Z,77.72
2019-01-23T01:51:16.103Z,77.75
2019-01-23T01:54:46.254Z,77.79
2019-01-23T01:58:17.274Z,77.82
2019-01-23T02:00:18.294Z,77.84
2019-01-23T02:03:48.335Z,77.85
2019-01-23T02:07:18.365Z,77.91
2019-01-23T02:10:48.382Z,77.95
2019-01-23T02:14:18.626Z,77.97
2019-01-23T02:17:48.946Z,78.02
2019-01-23T02:21:18.976Z,78.06
2019-01-23T02:24:49.147Z,78.1
2019-01-23T02:28:19.277Z,78.15
2019-01-23T02:31:49.398Z,78.2
2019-01-23T02:35:19.630Z,78.24
2019-01-23T02:38:49.738Z,78.32
2019-01-23T02:42:19.829Z,78.36
2019-01-23T02:45:49.919Z,78.4
2019-01-23T02:49:20.016Z,78.46
2019-01-23T02:52:50.061Z,78.51
2019-01-23T02:56:20.120Z,78.56
2019-01-23T02:59:51.031Z,78.62
2019-01-23T03:03:21.116Z,78.68
2019-01-23T03:06:51.111Z,78.74
2019-01-23T03:10:21.198Z,78.79
2019-01-23T03:13:51.263Z,78.85
2019-01-23T03:17:21.353Z,78.92
2019-01-23T03:20:51.447Z,78.98
2019-01-23T03:24:21.543Z,79.05
2019-01-23T03:27:51.725Z,79.12
2019-01-23T03:31:21.939Z,79.15
2019-01-23T03:34:52.079Z,79.23
2019-01-23T03:38:22.218Z,79.29
2019-01-23T03:41:52.285Z,79.34
2019-01-23T03:45:22.307Z,79.43
2019-01-23T03:48:52.395Z,79.49
2019-01-23T03:52:22.449Z,79.55
2019-01-23T03:55:52.587Z,79.63
2019-01-23T03:59:22.711Z,79.7
2019-01-23T04:00:18.997Z,79.7
2019-01-23T04:03:49.023Z,79.74
2019-01-23T04:07:19.119Z,79.8
2019-01-23T04:10:49.338Z,79.82
2019-01-23T04:14:19.479Z,79.86
2019-01-23T04:17:49.620Z,79.91
2019-01-23T04:21:19.670Z,79.95
2019-01-23T04:24:49.785Z,80.02
2019-01-23T04:28:19.761Z,80.09
2019-01-23T04:31:49.872Z,80.16
2019-01-23T04:35:19.870Z,80.21
2019-01-23T04:38:50.022Z,80.26
2019-01-23T04:42:20.003Z,80.32
2019-01-23T04:45:50.115Z,80.38
2019-01-23T04:49:20.185Z,80.42
2019-01-23T04:53:31.231Z,80.48
2019-01-23T04:57:01.214Z,80.52
2019-01-23T05:00:32.445Z,80.52
2019-01-23T05:04:03.444Z,80.59
2019-01-23T05:07:33.616Z,80.61
2019-01-23T05:11:03.646Z,80.7
2019-01-23T05:14:33.826Z,80.72
2019-01-23T05:18:03.928Z,80.75
2019-01-23T05:21:34.017Z,80.81
2019-01-23T05:25:04.698Z,80.84
2019-01-23T05:28:34.818Z,80.9
2019-01-23T05:32:05.021Z,80.94
2019-01-23T05:35:35.129Z,80.97
2019-01-23T05:39:06.941Z,80.99
2019-01-23T05:42:36.976Z,81
2019-01-23T05:46:07.104Z,81.05
2019-01-23T05:49:37.133Z,81.08
2019-01-23T05:53:07.111Z,81.11
2019-01-23T05:56:37.248Z,81.13
2019-01-23T06:00:16.442Z,81.18
2019-01-23T06:03:46.695Z,81.22
2019-01-23T06:07:16.833Z,81.24
2019-01-23T06:10:46.983Z,81.28
2019-01-23T06:14:17.004Z,81.32
2019-01-23T06:17:47.065Z,81.37
2019-01-23T06:21:17.125Z,81.36
2019-01-23T06:24:47.225Z,81.35
2019-01-23T06:28:17.314Z,81.39
2019-01-23T06:31:47.419Z,81.4
2019-01-23T06:35:17.632Z,81.45
2019-01-23T06:38:47.798Z,81.49
2019-01-23T06:42:17.777Z,81.5
2019-01-23T06:45:47.918Z,81.51
2019-01-23T06:49:18.107Z,81.48
2019-01-23T06:52:48.340Z,81.53
2019-01-23T06:56:18.339Z,81.54
2019-01-23T06:59:48.430Z,81.55
2019-01-23T07:03:18.496Z,81.58
2019-01-23T07:06:49.660Z,81.61
2019-01-23T07:10:22.444Z,81.64
2019-01-23T07:13:52.531Z,81.6
2019-01-23T07:17:22.582Z,81.61
2019-01-23T07:20:52.672Z,81.62
2019-01-23T07:24:22.713Z,81.63
2019-01-23T07:27:52.773Z,81.63
2019-01-23T07:31:22.884Z,81.6
2019-01-23T07:34:52.944Z,81.61
2019-01-23T07:38:22.915Z,81.6
2019-01-23T07:41:53.105Z,81.58
2019-01-23T07:45:23.434Z,81.62
2019-01-23T07:48:53.552Z,81.6
2019-01-23T07:52:23.536Z,81.65
2019-01-23T07:55:53.547Z,81.54
2019-01-23T07:59:23.570Z,81.5
2019-01-23T08:00:18.271Z,81.55
2019-01-23T08:03:48.483Z,81.52
2019-01-23T08:07:19.539Z,81.5
2019-01-23T08:10:49.499Z,81.51
2019-01-23T08:14:19.470Z,81.46
2019-01-23T08:17:49.650Z,81.42
2019-01-23T08:21:19.732Z,81.4
2019-01-23T08:24:49.871Z,81.42
2019-01-23T08:28:19.891Z,81.37
2019-01-23T08:31:49.953Z,81.37
2019-01-23T08:35:20.376Z,81.33
2019-01-23T08:38:50.526Z,81.26
2019-01-23T08:42:20.574Z,81.3
2019-01-23T08:45:50.655Z,81.26
2019-01-23T08:49:20.651Z,81.17
2019-01-23T08:52:50.825Z,81.22
2019-01-23T08:56:20.896Z,81.22
2019-01-23T08:59:51.126Z,81.22
2019-01-23T09:03:21.170Z,81.04
2019-01-23T09:06:51.266Z,81.12
2019-01-23T09:10:22.428Z,81.07
2019-01-23T09:13:52.538Z,81.04
2019-01-23T09:17:22.618Z,80.97
2019-01-23T09:20:52.631Z,80.91
2019-01-23T09:24:22.750Z,80.83
2019-01-23T09:27:52.949Z,80.74
2019-01-23T09:31:50.152Z,80.62
2019-01-23T09:35:30.183Z,80.55
2019-01-23T09:39:16.170Z,80.52
2019-01-23T09:47:40.454Z,80.33
2019-01-23T09:52:32.899Z,80.22
2019-01-23T09:56:03.353Z,80.14
2019-01-23T09:59:33.417Z,80.06
2019-01-23T10:00:21.086Z,80.05
2019-01-23T10:03:51.157Z,80
2019-01-23T10:07:21.137Z,79.85
2019-01-23T10:10:52.178Z,79.79
2019-01-23T10:14:22.368Z,79.67
2019-01-23T10:17:52.489Z,79.59
2019-01-23T10:21:22.746Z,79.56
2019-01-23T10:24:52.930Z,79.47
2019-01-23T10:28:22.921Z,79.41
2019-01-23T10:31:53.041Z,79.3
2019-01-23T10:35:23.137Z,79.19
2019-01-23T10:38:53.253Z,79.12
2019-01-23T10:42:23.423Z,79.1
2019-01-23T10:45:53.464Z,79.01
2019-01-23T10:49:23.446Z,78.93
2019-01-23T10:52:53.638Z,78.78
2019-01-23T10:56:23.746Z,78.68
2019-01-23T10:59:53.827Z,78.51
2019-01-23T11:03:23.858Z,78.28
2019-01-23T11:06:53.918Z,78.14
2019-01-23T11:10:24.159Z,77.98
2019-01-23T11:13:55.150Z,77.83
2019-01-23T11:17:25.279Z,77.68
2019-01-23T11:20:55.441Z,77.54
2019-01-23T11:24:25.461Z,77.42
2019-01-23T11:27:55.592Z,77.29
2019-01-23T11:31:25.733Z,77.16
2019-01-23T11:34:55.838Z,77.01
2019-01-23T11:38:25.885Z,76.88
2019-01-23T11:41:55.967Z,76.74
2019-01-23T11:45:26.446Z,76.7
2019-01-23T11:48:56.542Z,76.55
2019-01-23T11:52:26.593Z,76.47
2019-01-23T11:55:56.708Z,76.33
2019-01-23T11:59:26.808Z,76.2
2019-01-23T12:00:18.599Z,76.15
2019-01-23T12:03:48.760Z,76.03
2019-01-23T12:07:18.750Z,75.89
2019-01-23T12:10:48.886Z,75.8
2019-01-23T12:14:19.042Z,75.63
2019-01-23T12:17:49.233Z,75.51
2019-01-23T12:21:19.273Z,75.36
2019-01-23T12:24:49.374Z,75.2
2019-01-23T12:28:19.384Z,75.06
2019-01-23T12:31:49.446Z,74.91
2019-01-23T12:35:19.509Z,74.73
2019-01-23T12:38:49.637Z,74.59
2019-01-23T12:42:19.668Z,74.36
2019-01-23T12:45:49.818Z,74.17
2019-01-23T12:49:19.979Z,73.96
2019-01-23T12:52:50.120Z,73.73
2019-01-23T12:56:20.080Z,73.56
2019-01-23T12:59:50.102Z,73.42
2019-01-23T13:03:20.192Z,73.26
2019-01-23T13:06:50.224Z,73.1
2019-01-23T13:10:20.578Z,73.02
2019-01-23T13:13:50.704Z,72.92
2019-01-23T13:17:21.802Z,72.8
2019-01-23T13:20:51.958Z,72.67
2019-01-23T13:24:21.966Z,72.56
2019-01-23T13:27:52.556Z,72.46
2019-01-23T13:31:22.619Z,72.34
2019-01-23T13:34:52.719Z,72.21
2019-01-23T13:38:22.689Z,72.1
2019-01-23T13:41:52.730Z,72.02
2019-01-23T13:45:22.790Z,71.96
2019-01-23T13:48:52.941Z,71.89
2019-01-23T13:52:23.001Z,71.83
2019-01-23T13:55:52.952Z,71.76
2019-01-23T13:59:22.983Z,71.73
2019-01-23T14:00:19.303Z,71.7
2019-01-23T14:04:38.356Z,71.66
2019-01-23T14:08:08.964Z,71.61
2019-01-23T14:11:39.075Z,71.57
2019-01-23T14:15:12.636Z,71.53
2019-01-23T14:18:43.746Z,71.5
2019-01-23T14:22:13.967Z,71.48
2019-01-23T14:25:44.138Z,71.46
2019-01-23T14:29:14.228Z,71.45
2019-01-23T14:32:44.349Z,71.42
2019-01-23T14:36:14.430Z,71.44
2019-01-23T14:39:44.530Z,71.43
2019-01-23T14:43:15.182Z,71.4
2019-01-23T14:46:45.453Z,71.38
2019-01-23T14:50:15.685Z,71.35
2019-01-23T14:53:45.794Z,71.31
2019-01-23T14:57:15.903Z,71.3
2019-01-23T15:00:46.064Z,71.26
2019-01-23T15:04:16.105Z,71.22
2019-01-23T15:07:46.326Z,71.21
2019-01-23T15:11:16.449Z,71.15
2019-01-23T15:14:46.647Z,71.12
2019-01-23T15:18:16.746Z,71.09
2019-01-23T15:21:46.988Z,71.09
2019-01-23T15:25:17.221Z,71.06
2019-01-23T15:28:47.380Z,71.05
2019-01-23T15:32:17.621Z,71.02
2019-01-23T15:35:47.880Z,71.01
2019-01-23T15:39:17.961Z,71.01
2019-01-23T15:42:48.162Z,70.99
2019-01-23T15:46:18.193Z,70.98
2019-01-23T15:49:48.327Z,71.01
2019-01-23T15:53:20.241Z,71.03
2019-01-23T15:56:50.429Z,71.04
2019-01-23T16:00:18.778Z,71.04
2019-01-23T16:03:48.800Z,71.05
2019-01-23T16:07:18.868Z,71.08
2019-01-23T16:10:48.950Z,71.12
2019-01-23T16:14:19.062Z,71.14
2019-01-23T16:17:49.150Z,71.18
2019-01-23T16:21:19.290Z,71.21
2019-01-23T16:24:50.250Z,71.24
2019-01-23T16:28:20.221Z,71.29
2019-01-23T16:31:50.272Z,71.32
2019-01-23T16:35:20.548Z,71.35
2019-01-23T16:38:50.550Z,71.39
2019-01-23T16:42:20.659Z,71.43
2019-01-23T16:45:51.139Z,71.48
2019-01-23T16:49:21.169Z,71.51
2019-01-23T16:52:51.382Z,71.57
2019-01-23T16:56:21.443Z,71.64
2019-01-23T16:59:51.586Z,71.68
2019-01-23T17:03:21.758Z,71.74
2019-01-23T17:06:51.810Z,71.79
2019-01-23T17:10:22.583Z,71.83
2019-01-23T17:13:52.692Z,71.89
2019-01-23T17:17:22.789Z,71.93
2019-01-23T17:20:52.871Z,72
2019-01-23T17:24:23.032Z,72.05
2019-01-23T17:27:53.965Z,72.1
2019-01-23T17:31:24.000Z,72.16
2019-01-23T17:34:54.032Z,72.21
2019-01-23T17:38:24.082Z,72.25
2019-01-23T17:41:54.264Z,72.29
2019-01-23T17:45:26.716Z,72.35
2019-01-23T17:48:56.910Z,72.39
2019-01-23T17:52:27.032Z,72.45
2019-01-23T17:55:57.237Z,72.47
2019-01-23T17:59:27.267Z,72.55
2019-01-23T18:00:19.261Z,72.55
2019-01-23T18:03:50.560Z,72.62
2019-01-23T18:07:21.122Z,72.65
2019-01-23T18:10:51.195Z,72.68
2019-01-23T18:14:21.267Z,72.73
2019-01-23T18:17:51.419Z,72.78
2019-01-23T18:21:21.441Z,72.78
2019-01-23T18:24:52.074Z,72.81
2019-01-23T18:28:23.117Z,72.85
2019-01-23T18:31:57.699Z,72.87
2019-01-23T18:35:33.701Z,72.92
2019-01-23T18:42:13.212Z,72.99
2019-01-23T18:48:18.090Z,73.07
2019-01-23T18:52:11.705Z,73.14
2019-01-23T18:55:41.822Z,73.2
2019-01-23T18:59:11.867Z,73.24
2019-01-23T19:02:41.909Z,73.28
2019-01-23T19:06:12.012Z,73.32
2019-01-23T19:09:42.194Z,73.41
2019-01-23T19:13:12.397Z,73.49
2019-01-23T19:16:43.060Z,73.54
2019-01-23T19:20:15.512Z,73.58
2019-01-23T19:23:45.556Z,73.63
2019-01-23T19:27:15.767Z,73.69
2019-01-23T19:30:46.929Z,73.73
2019-01-23T19:34:16.861Z,73.74
2019-01-23T19:37:46.954Z,73.78
2019-01-23T19:41:20.403Z,73.78
2019-01-23T19:44:51.019Z,73.81
2019-01-23T19:48:21.094Z,73.8
2019-01-23T19:51:51.134Z,73.79
2019-01-23T19:55:21.476Z,73.81
2019-01-23T19:58:51.508Z,73.8
2019-01-23T20:00:20.129Z,73.82
2019-01-23T20:03:50.232Z,73.84
2019-01-23T20:07:20.274Z,73.83
2019-01-23T20:10:50.276Z,73.83
2019-01-23T20:14:20.269Z,73.82
2019-01-23T20:17:52.962Z,73.81
2019-01-23T20:21:23.015Z,73.8
2019-01-23T20:24:53.166Z,73.8
2019-01-23T20:28:23.569Z,73.78
2019-01-23T20:31:54.610Z,73.79
2019-01-23T20:35:24.766Z,73.8
2019-01-23T20:38:54.845Z,73.79
2019-01-23T20:42:24.938Z,73.8
2019-01-23T20:45:55.041Z,73.82
2019-01-23T20:49:25.163Z,73.86
2019-01-23T20:52:55.246Z,73.86
2019-01-23T20:56:25.432Z,73.91
2019-01-23T20:59:55.510Z,73.93
2019-01-23T21:03:25.692Z,73.95
2019-01-23T21:06:55.771Z,73.98
2019-01-23T21:10:26.138Z,74.03
2019-01-23T21:13:56.180Z,74.06
2019-01-23T21:17:26.247Z,74.11
2019-01-23T21:20:56.364Z,74.17
2019-01-23T21:24:26.476Z,74.21
2019-01-23T21:27:56.609Z,74.28
2019-01-23T21:31:26.711Z,74.32
2019-01-23T21:34:57.795Z,74.36
2019-01-23T21:38:27.845Z,74.43
2019-01-23T21:41:57.919Z,74.48
2019-01-23T21:45:30.191Z,74.52
2019-01-23T21:49:00.314Z,74.57
2019-01-23T21:52:30.396Z,74.63
2019-01-23T21:56:00.480Z,74.68
2019-01-23T21:59:30.511Z,74.72
2019-01-23T22:00:21.621Z,74.74
2019-01-23T22:03:51.654Z,74.79
2019-01-23T22:07:21.766Z,74.84
2019-01-23T22:10:51.962Z,74.92
2019-01-23T22:14:22.081Z,74.95
2019-01-23T22:17:52.173Z,74.99
2019-01-23T22:21:22.185Z,75.07
2019-01-23T22:24:52.168Z,75.11
2019-01-23T22:28:22.242Z,75.17
2019-01-23T22:31:52.303Z,75.19
2019-01-23T22:35:23.476Z,75.25
2019-01-23T22:38:53.535Z,75.33
2019-01-23T22:42:23.566Z,75.4
2019-01-23T22:45:53.632Z,75.47
2019-01-23T22:49:23.707Z,75.54
2019-01-23T22:52:53.735Z,75.56
2019-01-23T22:56:23.874Z,75.65
2019-01-23T22:59:53.906Z,75.74
2019-01-23T23:03:23.984Z,75.78
2019-01-23T23:06:53.914Z,75.81
2019-01-23T23:10:24.135Z,75.85
2019-01-23T23:13:54.186Z,75.89
2019-01-23T23:17:24.240Z,75.93
2019-01-23T23:20:54.223Z,76.01
2019-01-23T23:24:24.288Z,76.03
2019-01-23T23:27:54.392Z,76.08
2019-01-23T23:31:24.527Z,76.11
2019-01-23T23:34:54.641Z,76.14
2019-01-23T23:38:25.756Z,76.17
2019-01-23T23:41:55.914Z,76.18
2019-01-23T23:45:26.085Z,76.23
2019-01-23T23:48:56.211Z,76.3
2019-01-23T23:52:26.230Z,76.33
2019-01-23T23:55:56.219Z,76.36
2019-01-23T23:59:26.273Z,76.37
